sensor_id;sensor_type;location;lat;lon;timestamp;P1;durP1;ratioP1;P2;durP2;ratioP2
5414;SDS011;2730;51.512;7.504;2023-05-10T00:00:31;2.53;;;1.73;;
5414;SDS011;2730;51.512;7.504;2023-05-10T00:02:58;2.95;;;1.60;;
5414;SDS011;2730;51.512;7.504;2023-05-10T00:05:25;1.77;;;1.67;;
5414;SDS011;2730;51.512;7.504;2023-05-10T00:07:52;1.80;;;1.60;;
5414;SDS011;2730;51.512;7.504;2023-05-10T00:10:18;4.22;;;1.83;;
5414;SDS011;2730;51.512;7.504;2023-05-10T00:12:45;3.00;;;2.10;;
5414;SDS011;2730;51.512;7.504;2023-05-10T00:15:13;4.55;;;2.00;;
5414;SDS011;2730;51.512;7.504;2023-05-10T00:17:40;1.73;;;1.60;;
5414;SDS011;2730;51.512;7.504;2023-05-10T00:20:07;2.88;;;1.92;;
5414;SDS011;2730;51.512;7.504;2023-05-10T00:22:35;2.55;;;2.15;;
5414;SDS011;2730;51.512;7.504;2023-05-10T00:25:02;2.53;;;2.33;;
5414;SDS011;2730;51.512;7.504;2023-05-10T00:27:29;3.90;;;2.10;;
5414;SDS011;2730;51.512;7.504;2023-05-10T00:29:55;2.58;;;2.33;;
5414;SDS011;2730;51.512;7.504;2023-05-10T00:32:24;2.67;;;2.42;;
5414;SDS011;2730;51.512;7.504;2023-05-10T00:34:50;3.58;;;2.70;;
5414;SDS011;2730;51.512;7.504;2023-05-10T00:37:17;3.42;;;3.08;;
5414;SDS011;2730;51.512;7.504;2023-05-10T00:39:44;3.42;;;3.13;;
5414;SDS011;2730;51.512;7.504;2023-05-10T00:42:11;4.35;;;3.28;;
5414;SDS011;2730;51.512;7.504;2023-05-10T00:44:37;3.00;;;2.80;;
5414;SDS011;2730;51.512;7.504;2023-05-10T00:47:04;4.13;;;2.97;;
5414;SDS011;2730;51.512;7.504;2023-05-10T00:49:32;4.55;;;3.17;;
5414;SDS011;2730;51.512;7.504;2023-05-10T00:52:00;5.30;;;3.70;;
5414;SDS011;2730;51.512;7.504;2023-05-10T00:54:28;4.82;;;3.28;;
5414;SDS011;2730;51.512;7.504;2023-05-10T00:56:55;5.55;;;4.30;;
5414;SDS011;2730;51.512;7.504;2023-05-10T00:59:22;7.43;;;3.75;;
5414;SDS011;2730;51.512;7.504;2023-05-10T01:01:49;6.28;;;3.97;;
5414;SDS011;2730;51.512;7.504;2023-05-10T01:04:16;6.22;;;4.00;;
5414;SDS011;2730;51.512;7.504;2023-05-10T01:06:46;8.57;;;4.75;;
5414;SDS011;2730;51.512;7.504;2023-05-10T01:09:13;9.90;;;5.13;;
5414;SDS011;2730;51.512;7.504;2023-05-10T01:11:40;7.07;;;5.20;;
5414;SDS011;2730;51.512;7.504;2023-05-10T01:14:06;7.63;;;4.72;;
5414;SDS011;2730;51.512;7.504;2023-05-10T01:16:34;5.57;;;4.30;;
5414;SDS011;2730;51.512;7.504;2023-05-10T01:19:04;6.55;;;4.95;;
5414;SDS011;2730;51.512;7.504;2023-05-10T01:21:42;9.65;;;5.18;;
5414;SDS011;2730;51.512;7.504;2023-05-10T01:24:22;7.75;;;5.80;;
5414;SDS011;2730;51.512;7.504;2023-05-10T01:27:20;9.25;;;5.88;;
5414;SDS011;2730;51.512;7.504;2023-05-10T01:30:08;9.52;;;5.25;;
5414;SDS011;2730;51.512;7.504;2023-05-10T01:32:50;12.93;;;7.18;;
5414;SDS011;2730;51.512;7.504;2023-05-10T01:35:25;8.93;;;5.75;;
5414;SDS011;2730;51.512;7.504;2023-05-10T01:37:59;12.52;;;7.47;;
5414;SDS011;2730;51.512;7.504;2023-05-10T01:40:35;13.10;;;7.85;;
5414;SDS011;2730;51.512;7.504;2023-05-10T01:43:08;14.00;;;7.35;;
5414;SDS011;2730;51.512;7.504;2023-05-10T01:45:45;13.18;;;7.07;;
5414;SDS011;2730;51.512;7.504;2023-05-10T01:48:18;12.80;;;7.22;;
5414;SDS011;2730;51.512;7.504;2023-05-10T01:50:46;12.25;;;7.80;;
5414;SDS011;2730;51.512;7.504;2023-05-10T01:53:17;12.00;;;6.90;;
5414;SDS011;2730;51.512;7.504;2023-05-10T01:55:46;11.45;;;6.90;;
5414;SDS011;2730;51.512;7.504;2023-05-10T01:58:17;12.63;;;7.95;;
5414;SDS011;2730;51.512;7.504;2023-05-10T02:00:47;21.83;;;7.80;;
5414;SDS011;2730;51.512;7.504;2023-05-10T02:03:15;12.50;;;7.35;;
5414;SDS011;2730;51.512;7.504;2023-05-10T02:05:46;13.48;;;7.50;;
5414;SDS011;2730;51.512;7.504;2023-05-10T02:08:14;12.63;;;7.45;;
5414;SDS011;2730;51.512;7.504;2023-05-10T02:10:44;12.63;;;7.07;;
5414;SDS011;2730;51.512;7.504;2023-05-10T02:13:12;11.55;;;6.60;;
5414;SDS011;2730;51.512;7.504;2023-05-10T02:15:42;11.55;;;6.78;;
5414;SDS011;2730;51.512;7.504;2023-05-10T02:18:10;8.80;;;6.00;;
5414;SDS011;2730;51.512;7.504;2023-05-10T02:20:39;10.40;;;5.97;;
5414;SDS011;2730;51.512;7.504;2023-05-10T02:23:06;10.60;;;6.35;;
5414;SDS011;2730;51.512;7.504;2023-05-10T02:25:35;9.07;;;5.90;;
5414;SDS011;2730;51.512;7.504;2023-05-10T02:28:04;8.60;;;4.82;;
5414;SDS011;2730;51.512;7.504;2023-05-10T02:30:32;7.72;;;5.35;;
5414;SDS011;2730;51.512;7.504;2023-05-10T02:33:01;11.80;;;5.57;;
5414;SDS011;2730;51.512;7.504;2023-05-10T02:35:29;8.00;;;4.88;;
5414;SDS011;2730;51.512;7.504;2023-05-10T02:37:59;7.72;;;4.65;;
5414;SDS011;2730;51.512;7.504;2023-05-10T02:40:27;8.48;;;6.30;;
5414;SDS011;2730;51.512;7.504;2023-05-10T02:42:54;8.77;;;5.45;;
5414;SDS011;2730;51.512;7.504;2023-05-10T02:45:24;8.38;;;5.32;;
5414;SDS011;2730;51.512;7.504;2023-05-10T02:47:54;9.57;;;5.00;;
5414;SDS011;2730;51.512;7.504;2023-05-10T02:50:21;7.40;;;5.47;;
5414;SDS011;2730;51.512;7.504;2023-05-10T02:52:51;7.20;;;4.35;;
5414;SDS011;2730;51.512;7.504;2023-05-10T02:55:25;7.38;;;4.20;;
5414;SDS011;2730;51.512;7.504;2023-05-10T02:57:58;5.57;;;3.55;;
5414;SDS011;2730;51.512;7.504;2023-05-10T03:00:26;4.15;;;3.13;;
5414;SDS011;2730;51.512;7.504;2023-05-10T03:02:53;2.88;;;2.03;;
5414;SDS011;2730;51.512;7.504;2023-05-10T03:05:20;3.75;;;2.80;;
5414;SDS011;2730;51.512;7.504;2023-05-10T03:07:47;4.70;;;2.85;;
5414;SDS011;2730;51.512;7.504;2023-05-10T03:10:14;3.35;;;2.25;;
5414;SDS011;2730;51.512;7.504;2023-05-10T03:12:46;3.53;;;2.40;;
5414;SDS011;2730;51.512;7.504;2023-05-10T03:15:22;2.50;;;2.30;;
5414;SDS011;2730;51.512;7.504;2023-05-10T03:18:00;4.78;;;3.40;;
5414;SDS011;2730;51.512;7.504;2023-05-10T03:20:32;4.72;;;3.03;;
5414;SDS011;2730;51.512;7.504;2023-05-10T03:23:04;6.03;;;3.40;;
5414;SDS011;2730;51.512;7.504;2023-05-10T03:25:35;9.77;;;5.10;;
5414;SDS011;2730;51.512;7.504;2023-05-10T03:28:04;16.98;;;7.85;;
5414;SDS011;2730;51.512;7.504;2023-05-10T03:30:32;6.05;;;3.20;;
5414;SDS011;2730;51.512;7.504;2023-05-10T03:33:03;5.38;;;2.83;;
5414;SDS011;2730;51.512;7.504;2023-05-10T03:35:31;4.32;;;3.03;;
5414;SDS011;2730;51.512;7.504;2023-05-10T03:37:58;4.00;;;2.25;;
5414;SDS011;2730;51.512;7.504;2023-05-10T03:40:25;2.42;;;2.10;;
5414;SDS011;2730;51.512;7.504;2023-05-10T03:42:53;3.35;;;2.30;;
5414;SDS011;2730;51.512;7.504;2023-05-10T03:45:22;2.42;;;2.25;;
5414;SDS011;2730;51.512;7.504;2023-05-10T03:47:49;3.45;;;2.25;;
5414;SDS011;2730;51.512;7.504;2023-05-10T03:50:16;4.68;;;2.55;;
5414;SDS011;2730;51.512;7.504;2023-05-10T03:52:43;7.18;;;4.05;;
5414;SDS011;2730;51.512;7.504;2023-05-10T03:55:10;6.75;;;5.30;;
5414;SDS011;2730;51.512;7.504;2023-05-10T03:57:36;15.27;;;7.55;;
5414;SDS011;2730;51.512;7.504;2023-05-10T04:00:03;10.50;;;6.32;;
5414;SDS011;2730;51.512;7.504;2023-05-10T04:02:32;12.45;;;6.75;;
5414;SDS011;2730;51.512;7.504;2023-05-10T04:04:59;12.77;;;7.47;;
5414;SDS011;2730;51.512;7.504;2023-05-10T04:07:26;12.18;;;6.60;;
5414;SDS011;2730;51.512;7.504;2023-05-10T04:09:53;15.60;;;8.25;;
5414;SDS011;2730;51.512;7.504;2023-05-10T04:12:19;13.27;;;7.75;;
5414;SDS011;2730;51.512;7.504;2023-05-10T04:14:46;18.15;;;7.65;;
5414;SDS011;2730;51.512;7.504;2023-05-10T04:17:13;19.40;;;9.32;;
5414;SDS011;2730;51.512;7.504;2023-05-10T04:19:41;17.75;;;9.25;;
5414;SDS011;2730;51.512;7.504;2023-05-10T04:22:08;20.17;;;8.75;;
5414;SDS011;2730;51.512;7.504;2023-05-10T04:24:34;23.08;;;10.68;;
5414;SDS011;2730;51.512;7.504;2023-05-10T04:27:01;20.15;;;10.07;;
5414;SDS011;2730;51.512;7.504;2023-05-10T04:29:28;20.45;;;10.35;;
5414;SDS011;2730;51.512;7.504;2023-05-10T04:31:55;17.60;;;9.63;;
5414;SDS011;2730;51.512;7.504;2023-05-10T04:34:22;20.23;;;10.75;;
5414;SDS011;2730;51.512;7.504;2023-05-10T04:36:50;18.35;;;9.75;;
5414;SDS011;2730;51.512;7.504;2023-05-10T04:39:17;19.60;;;10.30;;
5414;SDS011;2730;51.512;7.504;2023-05-10T04:41:44;21.38;;;9.75;;
5414;SDS011;2730;51.512;7.504;2023-05-10T04:44:11;19.70;;;10.02;;
5414;SDS011;2730;51.512;7.504;2023-05-10T04:46:37;23.70;;;10.85;;
5414;SDS011;2730;51.512;7.504;2023-05-10T04:49:04;18.42;;;8.52;;
5414;SDS011;2730;51.512;7.504;2023-05-10T04:51:31;19.80;;;9.40;;
5414;SDS011;2730;51.512;7.504;2023-05-10T04:53:59;20.25;;;8.52;;
5414;SDS011;2730;51.512;7.504;2023-05-10T04:56:25;20.35;;;9.35;;
5414;SDS011;2730;51.512;7.504;2023-05-10T04:58:52;21.02;;;9.93;;
5414;SDS011;2730;51.512;7.504;2023-05-10T05:01:19;19.48;;;9.60;;
5414;SDS011;2730;51.512;7.504;2023-05-10T05:03:46;21.45;;;10.63;;
5414;SDS011;2730;51.512;7.504;2023-05-10T05:06:13;19.25;;;10.13;;
5414;SDS011;2730;51.512;7.504;2023-05-10T05:08:39;23.55;;;11.07;;
5414;SDS011;2730;51.512;7.504;2023-05-10T05:11:07;24.38;;;12.43;;
5414;SDS011;2730;51.512;7.504;2023-05-10T05:13:34;25.33;;;12.10;;
5414;SDS011;2730;51.512;7.504;2023-05-10T05:16:01;25.38;;;13.07;;
5414;SDS011;2730;51.512;7.504;2023-05-10T05:18:28;33.00;;;13.82;;
5414;SDS011;2730;51.512;7.504;2023-05-10T05:20:55;31.77;;;14.57;;
5414;SDS011;2730;51.512;7.504;2023-05-10T05:23:22;31.27;;;14.27;;
5414;SDS011;2730;51.512;7.504;2023-05-10T05:25:50;40.53;;;16.10;;
5414;SDS011;2730;51.512;7.504;2023-05-10T05:28:19;37.53;;;16.20;;
5414;SDS011;2730;51.512;7.504;2023-05-10T05:30:46;39.50;;;16.98;;
5414;SDS011;2730;51.512;7.504;2023-05-10T05:33:13;40.08;;;17.63;;
5414;SDS011;2730;51.512;7.504;2023-05-10T05:35:41;40.72;;;17.35;;
5414;SDS011;2730;51.512;7.504;2023-05-10T05:38:12;38.67;;;17.13;;
5414;SDS011;2730;51.512;7.504;2023-05-10T05:40:39;38.13;;;17.95;;
5414;SDS011;2730;51.512;7.504;2023-05-10T05:43:06;38.60;;;17.02;;
5414;SDS011;2730;51.512;7.504;2023-05-10T05:45:35;44.25;;;18.33;;
5414;SDS011;2730;51.512;7.504;2023-05-10T05:48:01;45.47;;;17.55;;
5414;SDS011;2730;51.512;7.504;2023-05-10T05:50:28;40.60;;;18.02;;
5414;SDS011;2730;51.512;7.504;2023-05-10T05:52:55;37.70;;;17.67;;
5414;SDS011;2730;51.512;7.504;2023-05-10T05:55:22;41.90;;;18.73;;
5414;SDS011;2730;51.512;7.504;2023-05-10T05:57:50;35.00;;;17.50;;
5414;SDS011;2730;51.512;7.504;2023-05-10T06:00:17;39.33;;;18.42;;
5414;SDS011;2730;51.512;7.504;2023-05-10T06:02:45;44.92;;;17.52;;
5414;SDS011;2730;51.512;7.504;2023-05-10T06:05:12;35.80;;;17.05;;
5414;SDS011;2730;51.512;7.504;2023-05-10T06:07:40;41.33;;;18.63;;
5414;SDS011;2730;51.512;7.504;2023-05-10T06:10:07;43.47;;;19.05;;
5414;SDS011;2730;51.512;7.504;2023-05-10T06:12:34;39.00;;;17.53;;
5414;SDS011;2730;51.512;7.504;2023-05-10T06:15:01;47.92;;;17.92;;
5414;SDS011;2730;51.512;7.504;2023-05-10T06:17:28;46.53;;;19.50;;
5414;SDS011;2730;51.512;7.504;2023-05-10T06:19:56;40.20;;;18.92;;
5414;SDS011;2730;51.512;7.504;2023-05-10T06:22:23;41.75;;;19.42;;
5414;SDS011;2730;51.512;7.504;2023-05-10T06:24:49;45.03;;;19.52;;
5414;SDS011;2730;51.512;7.504;2023-05-10T06:27:16;38.70;;;18.42;;
5414;SDS011;2730;51.512;7.504;2023-05-10T06:29:43;43.78;;;20.27;;
5414;SDS011;2730;51.512;7.504;2023-05-10T06:32:10;43.27;;;18.67;;
5414;SDS011;2730;51.512;7.504;2023-05-10T06:34:36;40.03;;;18.85;;
5414;SDS011;2730;51.512;7.504;2023-05-10T06:37:04;44.43;;;20.20;;
5414;SDS011;2730;51.512;7.504;2023-05-10T06:39:31;47.92;;;20.40;;
5414;SDS011;2730;51.512;7.504;2023-05-10T06:41:58;46.15;;;21.10;;
5414;SDS011;2730;51.512;7.504;2023-05-10T06:44:26;41.08;;;19.17;;
5414;SDS011;2730;51.512;7.504;2023-05-10T06:46:53;49.05;;;20.15;;
5414;SDS011;2730;51.512;7.504;2023-05-10T06:49:20;50.25;;;21.25;;
5414;SDS011;2730;51.512;7.504;2023-05-10T06:51:47;47.63;;;21.95;;
5414;SDS011;2730;51.512;7.504;2023-05-10T06:54:15;47.95;;;20.55;;
5414;SDS011;2730;51.512;7.504;2023-05-10T06:56:42;45.55;;;20.45;;
5414;SDS011;2730;51.512;7.504;2023-05-10T06:59:09;45.38;;;22.83;;
5414;SDS011;2730;51.512;7.504;2023-05-10T07:01:37;46.17;;;20.97;;
5414;SDS011;2730;51.512;7.504;2023-05-10T07:04:04;45.90;;;21.03;;
5414;SDS011;2730;51.512;7.504;2023-05-10T07:06:32;49.37;;;22.80;;
5414;SDS011;2730;51.512;7.504;2023-05-10T07:08:59;46.53;;;21.87;;
5414;SDS011;2730;51.512;7.504;2023-05-10T07:11:27;50.83;;;22.13;;
5414;SDS011;2730;51.512;7.504;2023-05-10T07:13:54;48.33;;;21.83;;
5414;SDS011;2730;51.512;7.504;2023-05-10T07:16:21;42.97;;;21.83;;
5414;SDS011;2730;51.512;7.504;2023-05-10T07:18:48;41.10;;;20.27;;
5414;SDS011;2730;51.512;7.504;2023-05-10T07:21:15;42.97;;;20.10;;
5414;SDS011;2730;51.512;7.504;2023-05-10T07:23:42;39.10;;;19.63;;
5414;SDS011;2730;51.512;7.504;2023-05-10T07:26:08;41.83;;;19.87;;
5414;SDS011;2730;51.512;7.504;2023-05-10T07:28:37;40.33;;;20.00;;
5414;SDS011;2730;51.512;7.504;2023-05-10T07:31:04;41.60;;;20.00;;
5414;SDS011;2730;51.512;7.504;2023-05-10T07:33:30;35.20;;;18.50;;
5414;SDS011;2730;51.512;7.504;2023-05-10T07:35:57;42.60;;;19.03;;
5414;SDS011;2730;51.512;7.504;2023-05-10T07:38:24;38.20;;;18.93;;
5414;SDS011;2730;51.512;7.504;2023-05-10T07:40:51;37.43;;;18.93;;
5414;SDS011;2730;51.512;7.504;2023-05-10T07:43:17;36.00;;;17.83;;
5414;SDS011;2730;51.512;7.504;2023-05-10T07:45:45;29.27;;;16.67;;
5414;SDS011;2730;51.512;7.504;2023-05-10T07:48:12;32.43;;;17.70;;
5414;SDS011;2730;51.512;7.504;2023-05-10T07:50:39;28.53;;;16.30;;
5414;SDS011;2730;51.512;7.504;2023-05-10T07:53:06;32.10;;;16.93;;
5414;SDS011;2730;51.512;7.504;2023-05-10T07:55:32;33.13;;;17.90;;
5414;SDS011;2730;51.512;7.504;2023-05-10T07:57:59;36.70;;;18.57;;
5414;SDS011;2730;51.512;7.504;2023-05-10T08:00:27;31.83;;;17.37;;
5414;SDS011;2730;51.512;7.504;2023-05-10T08:02:55;31.83;;;18.00;;
5414;SDS011;2730;51.512;7.504;2023-05-10T08:05:21;27.90;;;16.73;;
5414;SDS011;2730;51.512;7.504;2023-05-10T08:07:48;37.43;;;17.20;;
5414;SDS011;2730;51.512;7.504;2023-05-10T08:10:15;30.03;;;16.70;;
5414;SDS011;2730;51.512;7.504;2023-05-10T08:12:42;29.83;;;15.93;;
5414;SDS011;2730;51.512;7.504;2023-05-10T08:15:09;31.73;;;16.10;;
5414;SDS011;2730;51.512;7.504;2023-05-10T08:17:36;28.03;;;13.20;;
5414;SDS011;2730;51.512;7.504;2023-05-10T08:20:05;33.30;;;15.27;;
5414;SDS011;2730;51.512;7.504;2023-05-10T08:22:32;30.37;;;15.60;;
5414;SDS011;2730;51.512;7.504;2023-05-10T08:24:59;27.63;;;15.67;;
5414;SDS011;2730;51.512;7.504;2023-05-10T08:27:26;31.37;;;16.00;;
5414;SDS011;2730;51.512;7.504;2023-05-10T08:29:53;30.70;;;16.93;;
5414;SDS011;2730;51.512;7.504;2023-05-10T08:32:19;32.83;;;14.83;;
5414;SDS011;2730;51.512;7.504;2023-05-10T08:34:46;28.20;;;14.90;;
5414;SDS011;2730;51.512;7.504;2023-05-10T08:37:14;25.60;;;14.97;;
5414;SDS011;2730;51.512;7.504;2023-05-10T08:39:41;27.53;;;14.20;;
5414;SDS011;2730;51.512;7.504;2023-05-10T08:42:08;24.80;;;14.50;;
5414;SDS011;2730;51.512;7.504;2023-05-10T08:44:36;32.60;;;15.63;;
5414;SDS011;2730;51.512;7.504;2023-05-10T08:47:04;32.93;;;15.73;;
5414;SDS011;2730;51.512;7.504;2023-05-10T08:49:32;35.40;;;16.63;;
5414;SDS011;2730;51.512;7.504;2023-05-10T08:52:00;33.83;;;18.00;;
5414;SDS011;2730;51.512;7.504;2023-05-10T08:54:32;35.00;;;18.27;;
5414;SDS011;2730;51.512;7.504;2023-05-10T08:57:00;35.47;;;17.50;;
5414;SDS011;2730;51.512;7.504;2023-05-10T08:59:28;30.80;;;15.13;;
5414;SDS011;2730;51.512;7.504;2023-05-10T09:01:55;29.23;;;15.23;;
5414;SDS011;2730;51.512;7.504;2023-05-10T09:04:24;29.97;;;15.67;;
5414;SDS011;2730;51.512;7.504;2023-05-10T09:06:51;28.10;;;12.27;;
5414;SDS011;2730;51.512;7.504;2023-05-10T09:09:18;23.03;;;12.17;;
5414;SDS011;2730;51.512;7.504;2023-05-10T09:11:47;19.83;;;11.87;;
5414;SDS011;2730;51.512;7.504;2023-05-10T09:14:14;27.20;;;11.63;;
5414;SDS011;2730;51.512;7.504;2023-05-10T09:16:42;30.20;;;14.20;;
5414;SDS011;2730;51.512;7.504;2023-05-10T09:19:09;25.43;;;13.10;;
5414;SDS011;2730;51.512;7.504;2023-05-10T09:21:36;23.43;;;13.30;;
5414;SDS011;2730;51.512;7.504;2023-05-10T09:24:04;24.60;;;14.40;;
5414;SDS011;2730;51.512;7.504;2023-05-10T09:26:32;27.50;;;13.40;;
5414;SDS011;2730;51.512;7.504;2023-05-10T09:29:02;24.33;;;12.80;;
5414;SDS011;2730;51.512;7.504;2023-05-10T09:31:45;26.87;;;13.43;;
5414;SDS011;2730;51.512;7.504;2023-05-10T09:34:16;27.93;;;14.27;;
5414;SDS011;2730;51.512;7.504;2023-05-10T09:36:50;27.43;;;14.03;;
5414;SDS011;2730;51.512;7.504;2023-05-10T09:39:18;22.73;;;11.83;;
5414;SDS011;2730;51.512;7.504;2023-05-10T09:41:45;25.13;;;12.60;;
5414;SDS011;2730;51.512;7.504;2023-05-10T09:44:15;25.80;;;12.87;;
5414;SDS011;2730;51.512;7.504;2023-05-10T09:46:48;25.30;;;11.80;;
5414;SDS011;2730;51.512;7.504;2023-05-10T09:49:15;20.97;;;11.87;;
5414;SDS011;2730;51.512;7.504;2023-05-10T09:51:42;24.53;;;12.77;;
5414;SDS011;2730;51.512;7.504;2023-05-10T09:54:09;21.77;;;11.47;;
5414;SDS011;2730;51.512;7.504;2023-05-10T09:56:38;27.77;;;12.93;;
5414;SDS011;2730;51.512;7.504;2023-05-10T09:59:05;22.40;;;12.50;;
5414;SDS011;2730;51.512;7.504;2023-05-10T10:01:34;25.27;;;11.07;;
5414;SDS011;2730;51.512;7.504;2023-05-10T10:04:02;15.93;;;10.20;;
5414;SDS011;2730;51.512;7.504;2023-05-10T10:06:34;23.00;;;11.87;;
5414;SDS011;2730;51.512;7.504;2023-05-10T10:09:02;16.63;;;9.20;;
5414;SDS011;2730;51.512;7.504;2023-05-10T10:11:28;19.73;;;10.23;;
5414;SDS011;2730;51.512;7.504;2023-05-10T10:13:55;16.20;;;9.20;;
5414;SDS011;2730;51.512;7.504;2023-05-10T10:16:22;15.30;;;7.70;;
5414;SDS011;2730;51.512;7.504;2023-05-10T10:18:51;12.53;;;7.40;;
5414;SDS011;2730;51.512;7.504;2023-05-10T10:21:18;12.40;;;7.60;;
5414;SDS011;2730;51.512;7.504;2023-05-10T10:23:45;13.97;;;7.03;;
5414;SDS011;2730;51.512;7.504;2023-05-10T10:26:12;12.67;;;6.97;;
5414;SDS011;2730;51.512;7.504;2023-05-10T10:28:42;10.90;;;7.13;;
5414;SDS011;2730;51.512;7.504;2023-05-10T10:31:17;13.43;;;7.07;;
5414;SDS011;2730;51.512;7.504;2023-05-10T10:34:01;10.43;;;7.33;;
5414;SDS011;2730;51.512;7.504;2023-05-10T10:36:31;11.17;;;6.27;;
5414;SDS011;2730;51.512;7.504;2023-05-10T10:39:02;11.67;;;6.77;;
5414;SDS011;2730;51.512;7.504;2023-05-10T10:41:37;11.43;;;6.83;;
5414;SDS011;2730;51.512;7.504;2023-05-10T10:47:05;9.10;;;5.87;;
5414;SDS011;2730;51.512;7.504;2023-05-10T10:49:43;11.60;;;7.00;;
5414;SDS011;2730;51.512;7.504;2023-05-10T10:52:21;12.20;;;6.60;;
5414;SDS011;2730;51.512;7.504;2023-05-10T10:54:52;12.60;;;6.83;;
5414;SDS011;2730;51.512;7.504;2023-05-10T10:57:22;11.47;;;7.10;;
5414;SDS011;2730;51.512;7.504;2023-05-10T10:59:54;13.47;;;7.20;;
5414;SDS011;2730;51.512;7.504;2023-05-10T11:02:44;12.83;;;7.20;;
5414;SDS011;2730;51.512;7.504;2023-05-10T11:05:24;10.53;;;6.60;;
5414;SDS011;2730;51.512;7.504;2023-05-10T11:07:59;10.97;;;6.60;;
5414;SDS011;2730;51.512;7.504;2023-05-10T11:10:27;13.63;;;7.13;;
5414;SDS011;2730;51.512;7.504;2023-05-10T11:12:58;15.90;;;7.70;;
5414;SDS011;2730;51.512;7.504;2023-05-10T11:15:29;19.60;;;10.77;;
5414;SDS011;2730;51.512;7.504;2023-05-10T11:17:56;18.00;;;11.77;;
5414;SDS011;2730;51.512;7.504;2023-05-10T11:20:24;19.83;;;9.90;;
5414;SDS011;2730;51.512;7.504;2023-05-10T11:22:59;17.67;;;9.60;;
5414;SDS011;2730;51.512;7.504;2023-05-10T11:25:41;22.40;;;10.00;;
5414;SDS011;2730;51.512;7.504;2023-05-10T11:28:09;16.00;;;8.50;;
5414;SDS011;2730;51.512;7.504;2023-05-10T11:30:37;21.77;;;8.73;;
5414;SDS011;2730;51.512;7.504;2023-05-10T11:33:05;15.27;;;9.00;;
5414;SDS011;2730;51.512;7.504;2023-05-10T11:35:38;14.70;;;7.90;;
5414;SDS011;2730;51.512;7.504;2023-05-10T11:38:06;12.47;;;7.20;;
5414;SDS011;2730;51.512;7.504;2023-05-10T11:40:33;11.43;;;6.90;;
5414;SDS011;2730;51.512;7.504;2023-05-10T11:43:00;13.87;;;8.30;;
5414;SDS011;2730;51.512;7.504;2023-05-10T11:45:27;14.40;;;7.37;;
5414;SDS011;2730;51.512;7.504;2023-05-10T11:47:56;19.67;;;10.47;;
5414;SDS011;2730;51.512;7.504;2023-05-10T11:50:23;16.37;;;11.30;;
5414;SDS011;2730;51.512;7.504;2023-05-10T11:52:52;17.33;;;10.07;;
5414;SDS011;2730;51.512;7.504;2023-05-10T11:55:20;16.13;;;10.87;;
5414;SDS011;2730;51.512;7.504;2023-05-10T11:57:47;18.97;;;10.73;;
5414;SDS011;2730;51.512;7.504;2023-05-10T12:00:17;17.20;;;12.00;;
5414;SDS011;2730;51.512;7.504;2023-05-10T12:02:44;18.67;;;11.23;;
5414;SDS011;2730;51.512;7.504;2023-05-10T12:05:11;16.20;;;11.13;;
5414;SDS011;2730;51.512;7.504;2023-05-10T12:07:38;17.83;;;10.57;;
5414;SDS011;2730;51.512;7.504;2023-05-10T12:10:07;18.60;;;10.27;;
5414;SDS011;2730;51.512;7.504;2023-05-10T12:12:38;14.37;;;8.33;;
5414;SDS011;2730;51.512;7.504;2023-05-10T12:15:10;14.77;;;8.50;;
5414;SDS011;2730;51.512;7.504;2023-05-10T12:17:38;17.57;;;8.80;;
5414;SDS011;2730;51.512;7.504;2023-05-10T12:20:15;18.00;;;9.30;;
5414;SDS011;2730;51.512;7.504;2023-05-10T12:22:46;20.47;;;9.90;;
5414;SDS011;2730;51.512;7.504;2023-05-10T12:25:16;15.87;;;9.03;;
5414;SDS011;2730;51.512;7.504;2023-05-10T12:27:53;14.70;;;8.60;;
5414;SDS011;2730;51.512;7.504;2023-05-10T12:30:21;14.03;;;8.87;;
5414;SDS011;2730;51.512;7.504;2023-05-10T12:32:49;21.30;;;8.93;;
5414;SDS011;2730;51.512;7.504;2023-05-10T12:35:16;15.87;;;8.77;;
5414;SDS011;2730;51.512;7.504;2023-05-10T12:37:45;13.37;;;7.90;;
5414;SDS011;2730;51.512;7.504;2023-05-10T12:40:12;15.70;;;9.57;;
5414;SDS011;2730;51.512;7.504;2023-05-10T12:42:41;14.67;;;7.57;;
5414;SDS011;2730;51.512;7.504;2023-05-10T12:45:10;16.97;;;7.90;;
5414;SDS011;2730;51.512;7.504;2023-05-10T12:47:37;13.77;;;7.90;;
5414;SDS011;2730;51.512;7.504;2023-05-10T12:50:05;11.47;;;7.23;;
5414;SDS011;2730;51.512;7.504;2023-05-10T12:52:32;14.43;;;6.53;;
5414;SDS011;2730;51.512;7.504;2023-05-10T12:54:59;10.03;;;6.07;;
5414;SDS011;2730;51.512;7.504;2023-05-10T12:57:26;8.83;;;6.90;;
5414;SDS011;2730;51.512;7.504;2023-05-10T12:59:55;9.77;;;6.43;;
5414;SDS011;2730;51.512;7.504;2023-05-10T13:02:21;14.53;;;7.30;;
5414;SDS011;2730;51.512;7.504;2023-05-10T13:04:49;17.77;;;6.80;;
5414;SDS011;2730;51.512;7.504;2023-05-10T13:07:16;14.20;;;7.37;;
5414;SDS011;2730;51.512;7.504;2023-05-10T13:09:42;15.37;;;7.20;;
5414;SDS011;2730;51.512;7.504;2023-05-10T13:12:09;10.90;;;6.27;;
5414;SDS011;2730;51.512;7.504;2023-05-10T13:14:36;12.50;;;7.00;;
5414;SDS011;2730;51.512;7.504;2023-05-10T13:17:06;9.40;;;6.60;;
5414;SDS011;2730;51.512;7.504;2023-05-10T13:19:33;10.40;;;7.00;;
5414;SDS011;2730;51.512;7.504;2023-05-10T13:22:00;10.63;;;6.97;;
5414;SDS011;2730;51.512;7.504;2023-05-10T13:24:27;12.70;;;7.23;;
5414;SDS011;2730;51.512;7.504;2023-05-10T13:26:54;9.77;;;6.73;;
5414;SDS011;2730;51.512;7.504;2023-05-10T13:29:21;12.37;;;6.87;;
5414;SDS011;2730;51.512;7.504;2023-05-10T13:31:47;13.73;;;7.70;;
5414;SDS011;2730;51.512;7.504;2023-05-10T13:34:16;11.50;;;7.50;;
5414;SDS011;2730;51.512;7.504;2023-05-10T13:36:45;11.53;;;7.47;;
5414;SDS011;2730;51.512;7.504;2023-05-10T13:39:12;11.90;;;7.20;;
5414;SDS011;2730;51.512;7.504;2023-05-10T13:41:39;15.50;;;7.07;;
5414;SDS011;2730;51.512;7.504;2023-05-10T13:44:06;9.73;;;8.00;;
5414;SDS011;2730;51.512;7.504;2023-05-10T13:46:33;11.87;;;7.63;;
5414;SDS011;2730;51.512;7.504;2023-05-10T13:49:00;11.67;;;8.10;;
5414;SDS011;2730;51.512;7.504;2023-05-10T13:51:28;10.50;;;6.70;;
5414;SDS011;2730;51.512;7.504;2023-05-10T13:53:56;10.73;;;6.63;;
5414;SDS011;2730;51.512;7.504;2023-05-10T13:56:23;9.87;;;6.83;;
5414;SDS011;2730;51.512;7.504;2023-05-10T13:58:50;11.50;;;7.53;;
5414;SDS011;2730;51.512;7.504;2023-05-10T14:01:17;14.27;;;7.33;;
5414;SDS011;2730;51.512;7.504;2023-05-10T14:03:44;11.93;;;6.90;;
5414;SDS011;2730;51.512;7.504;2023-05-10T14:06:11;10.10;;;7.57;;
5414;SDS011;2730;51.512;7.504;2023-05-10T14:08:39;11.07;;;8.03;;
5414;SDS011;2730;51.512;7.504;2023-05-10T14:11:06;10.93;;;7.43;;
5414;SDS011;2730;51.512;7.504;2023-05-10T14:13:33;13.43;;;8.00;;
5414;SDS011;2730;51.512;7.504;2023-05-10T14:16:00;13.17;;;9.00;;
5414;SDS011;2730;51.512;7.504;2023-05-10T14:18:27;11.53;;;6.83;;
5414;SDS011;2730;51.512;7.504;2023-05-10T14:20:54;6.77;;;6.03;;
5414;SDS011;2730;51.512;7.504;2023-05-10T14:23:21;7.67;;;6.13;;
5414;SDS011;2730;51.512;7.504;2023-05-10T14:25:51;7.07;;;5.57;;
5414;SDS011;2730;51.512;7.504;2023-05-10T14:28:18;6.60;;;5.10;;
5414;SDS011;2730;51.512;7.504;2023-05-10T14:30:45;8.90;;;4.90;;
5414;SDS011;2730;51.512;7.504;2023-05-10T14:33:12;6.40;;;4.33;;
5414;SDS011;2730;51.512;7.504;2023-05-10T14:35:39;5.53;;;4.70;;
5414;SDS011;2730;51.512;7.504;2023-05-10T14:38:06;5.37;;;4.80;;
5414;SDS011;2730;51.512;7.504;2023-05-10T14:40:33;5.77;;;4.10;;
5414;SDS011;2730;51.512;7.504;2023-05-10T14:43:01;4.43;;;3.97;;
5414;SDS011;2730;51.512;7.504;2023-05-10T14:45:28;7.27;;;4.60;;
5414;SDS011;2730;51.512;7.504;2023-05-10T14:47:55;5.93;;;4.90;;
5414;SDS011;2730;51.512;7.504;2023-05-10T14:50:22;4.80;;;4.37;;
5414;SDS011;2730;51.512;7.504;2023-05-10T14:52:49;7.10;;;4.97;;
5414;SDS011;2730;51.512;7.504;2023-05-10T14:55:16;5.93;;;4.67;;
5414;SDS011;2730;51.512;7.504;2023-05-10T14:57:42;4.30;;;3.60;;
5414;SDS011;2730;51.512;7.504;2023-05-10T15:00:14;5.77;;;4.90;;
5414;SDS011;2730;51.512;7.504;2023-05-10T15:02:41;5.50;;;4.60;;
5414;SDS011;2730;51.512;7.504;2023-05-10T15:05:08;9.20;;;3.93;;
5414;SDS011;2730;51.512;7.504;2023-05-10T15:07:35;5.83;;;3.40;;
5414;SDS011;2730;51.512;7.504;2023-05-10T15:10:02;4.13;;;3.60;;